createdAt,value
2022-09-20T00:01:06.913Z,8.20
2022-09-20T00:03:35.323Z,10.70
2022-09-20T00:06:04.333Z,6.60
2022-09-20T00:08:32.921Z,4.73
2022-09-20T00:11:06.714Z,7.00
2022-09-20T00:13:36.031Z,9.10
2022-09-20T00:16:06.962Z,9.03
2022-09-20T00:18:35.439Z,10.70
2022-09-20T00:21:03.903Z,11.07
2022-09-20T00:23:32.247Z,11.70
2022-09-20T00:26:01.868Z,8.47
2022-09-20T00:28:31.842Z,11.17
2022-09-20T00:31:00.180Z,8.30
2022-09-20T00:33:49.360Z,13.43
2022-09-20T00:36:16.902Z,7.77
2022-09-20T00:38:45.261Z,8.43
2022-09-20T00:41:13.755Z,8.40
2022-09-20T00:43:44.503Z,8.53
2022-09-20T00:46:20.827Z,10.20
2022-09-20T00:48:49.863Z,6.87
2022-09-20T00:51:19.835Z,7.17
2022-09-20T00:53:50.948Z,8.13
2022-09-20T00:56:21.085Z,8.10
2022-09-20T00:58:52.877Z,9.53
2022-09-20T01:01:21.516Z,13.27
2022-09-20T01:03:50.045Z,7.83
2022-09-20T01:06:19.107Z,5.53
2022-09-20T01:08:49.225Z,10.93
2022-09-20T01:11:17.656Z,8.57
2022-09-20T01:13:46.030Z,9.10
2022-09-20T01:16:17.428Z,11.83
2022-09-20T01:18:46.671Z,11.90
2022-09-20T01:21:15.638Z,14.00
2022-09-20T01:23:48.652Z,14.57
2022-09-20T01:26:31.903Z,10.33
2022-09-20T01:29:05.069Z,13.33
2022-09-20T01:31:35.465Z,10.03
2022-09-20T01:34:05.910Z,9.90
2022-09-20T01:36:36.163Z,9.30
2022-09-20T01:39:09.440Z,14.00
2022-09-20T01:41:40.070Z,11.00
2022-09-20T01:44:14.333Z,10.27
2022-09-20T01:46:44.597Z,8.40
2022-09-20T01:49:35.426Z,6.93
2022-09-20T01:52:22.081Z,9.17
2022-09-20T01:55:11.293Z,9.30
2022-09-20T01:57:59.957Z,9.07
2022-09-20T02:00:31.844Z,6.30
2022-09-20T02:03:19.627Z,10.83
2022-09-20T02:06:06.445Z,7.70
2022-09-20T02:08:42.119Z,7.23
2022-09-20T02:11:15.079Z,7.63
2022-09-20T02:14:01.946Z,8.23
2022-09-20T02:16:39.367Z,9.43
2022-09-20T02:19:23.617Z,5.93
2022-09-20T02:21:54.491Z,10.50
2022-09-20T02:24:25.217Z,10.50
2022-09-20T02:27:01.274Z,12.70
2022-09-20T02:29:34.527Z,9.80
2022-09-20T02:32:10.747Z,7.70
2022-09-20T02:34:46.207Z,5.10
2022-09-20T02:37:25.625Z,11.17
2022-09-20T02:40:00.744Z,12.60
2022-09-20T02:42:31.674Z,17.87
2022-09-20T02:45:02.663Z,8.90
2022-09-20T02:47:35.467Z,11.33
2022-09-20T02:50:15.301Z,8.13
2022-09-20T02:52:46.716Z,9.37
2022-09-20T02:55:19.353Z,14.57
2022-09-20T02:57:52.554Z,13.27
2022-09-20T03:00:22.423Z,12.77
2022-09-20T03:02:57.721Z,12.77
2022-09-20T03:05:28.112Z,11.43
2022-09-20T03:08:03.499Z,13.47
2022-09-20T03:10:36.105Z,7.83
2022-09-20T03:13:13.122Z,8.43
2022-09-20T03:15:44.978Z,10.70
2022-09-20T03:18:17.750Z,10.80
2022-09-20T03:20:50.097Z,10.23
2022-09-20T03:23:25.026Z,12.30
2022-09-20T03:25:56.413Z,11.70
2022-09-20T03:28:33.030Z,9.33
2022-09-20T03:31:05.444Z,9.10
2022-09-20T03:33:41.797Z,8.90
2022-09-20T03:36:19.957Z,9.87
2022-09-20T03:39:00.282Z,9.50
2022-09-20T03:41:49.056Z,6.83
2022-09-20T03:44:26.879Z,8.03
2022-09-20T03:47:01.097Z,14.07
2022-09-20T03:49:43.622Z,7.40
2022-09-20T03:52:16.551Z,13.67
2022-09-20T03:55:05.705Z,13.87
2022-09-20T03:57:41.182Z,10.77
2022-09-20T04:00:16.922Z,10.40
2022-09-20T04:02:55.587Z,9.20
2022-09-20T04:05:29.471Z,11.23
2022-09-20T04:08:04.455Z,11.63
2022-09-20T04:10:37.617Z,14.90
2022-09-20T04:13:20.878Z,10.63
2022-09-20T04:15:55.349Z,13.17
2022-09-20T04:18:28.089Z,10.27
2022-09-20T04:21:02.063Z,8.60
2022-09-20T04:23:34.639Z,8.13
2022-09-20T04:26:03.837Z,9.33
2022-09-20T04:28:36.468Z,8.77
2022-09-20T04:31:07.945Z,9.97
2022-09-20T04:33:38.904Z,6.83
2022-09-20T04:36:30.665Z,7.97
2022-09-20T04:39:07.348Z,8.90
2022-09-20T04:41:49.929Z,5.57
2022-09-20T04:44:40.625Z,7.97
2022-09-20T04:47:27.870Z,8.63
2022-09-20T04:50:17.043Z,8.50
2022-09-20T04:53:14.851Z,11.83
2022-09-20T04:55:50.733Z,6.77
2022-09-20T04:58:37.454Z,7.47
2022-09-20T05:01:20.725Z,8.73
2022-09-20T05:04:01.881Z,6.97
2022-09-20T05:06:45.933Z,6.83
2022-09-20T05:09:24.637Z,8.50
2022-09-20T05:12:05.026Z,10.30
2022-09-20T05:14:42.327Z,7.90
2022-09-20T05:17:33.134Z,8.23
2022-09-20T05:20:19.554Z,10.23
2022-09-20T05:23:12.103Z,9.40
2022-09-20T05:25:49.486Z,10.67
2022-09-20T05:28:21.889Z,8.20
2022-09-20T05:30:51.497Z,12.17
2022-09-20T05:33:24.166Z,6.33
2022-09-20T05:35:56.999Z,10.43
2022-09-20T05:38:30.509Z,7.33
2022-09-20T05:41:07.626Z,11.83
2022-09-20T05:43:36.930Z,9.27
2022-09-20T05:46:12.461Z,9.23
2022-09-20T05:48:42.997Z,12.03
2022-09-20T05:51:15.494Z,9.93
2022-09-20T05:54:02.401Z,10.70
2022-09-20T05:56:47.450Z,8.60
2022-09-20T05:59:24.899Z,8.10
2022-09-20T06:02:00.998Z,11.87
2022-09-20T06:04:32.053Z,6.63
2022-09-20T06:07:05.518Z,9.70
2022-09-20T06:09:47.033Z,12.57
2022-09-20T06:12:21.637Z,9.53
2022-09-20T06:14:54.007Z,6.57
2022-09-20T06:17:27.092Z,7.67
2022-09-20T06:20:02.033Z,7.87
2022-09-20T06:22:31.679Z,6.60
2022-09-20T06:25:03.375Z,6.40
2022-09-20T06:27:36.331Z,7.37
2022-09-20T06:30:06.929Z,7.67
2022-09-20T06:32:36.081Z,6.40
2022-09-20T06:35:04.832Z,6.07
2022-09-20T06:37:55.814Z,7.50
2022-09-20T06:40:50.616Z,7.80
2022-09-20T06:43:20.366Z,8.77
2022-09-20T06:45:49.061Z,7.03
2022-09-20T06:48:19.277Z,6.90
2022-09-20T06:50:47.703Z,8.93
2022-09-20T06:53:17.804Z,10.23
2022-09-20T06:55:47.050Z,9.23
2022-09-20T06:58:15.453Z,7.70
2022-09-20T07:00:45.563Z,11.03
2022-09-20T07:03:14.053Z,5.10
2022-09-20T07:05:42.538Z,7.00
2022-09-20T07:08:10.942Z,7.53
2022-09-20T07:10:39.341Z,6.67
2022-09-20T07:13:07.791Z,7.23
2022-09-20T07:15:36.554Z,7.67
2022-09-20T07:18:06.299Z,10.60
2022-09-20T07:20:35.053Z,7.00
2022-09-20T07:23:03.885Z,9.03
2022-09-20T07:25:32.537Z,7.97
2022-09-20T07:28:00.942Z,6.83
2022-09-20T07:30:29.387Z,8.70
2022-09-20T07:32:57.765Z,8.20
2022-09-20T07:35:28.029Z,7.17
2022-09-20T07:37:59.734Z,9.80
2022-09-20T07:40:28.109Z,8.03
2022-09-20T07:42:58.653Z,11.20
2022-09-20T07:45:27.365Z,8.70
2022-09-20T07:47:55.801Z,6.63
2022-09-20T07:50:24.577Z,10.63
2022-09-20T07:52:57.949Z,9.57
2022-09-20T07:55:26.342Z,10.70
2022-09-20T07:57:55.695Z,6.73
2022-09-20T08:00:24.041Z,8.77
2022-09-20T08:03:00.275Z,10.40
2022-09-20T08:05:28.704Z,10.10
2022-09-20T08:07:59.825Z,9.80
2022-09-20T08:10:28.287Z,8.63
2022-09-20T08:15:45.205Z,11.47
2022-09-20T08:18:14.470Z,8.37
2022-09-20T08:20:42.842Z,9.20
2022-09-20T08:23:23.362Z,6.60
2022-09-20T08:25:52.423Z,10.87
2022-09-20T08:28:20.799Z,8.13
2022-09-20T08:30:49.198Z,8.83
2022-09-20T08:33:17.579Z,11.73
2022-09-20T08:35:45.934Z,5.70
2022-09-20T08:41:05.876Z,8.27
2022-09-20T08:43:36.887Z,5.60
2022-09-20T08:46:06.298Z,8.00
2022-09-20T08:48:35.925Z,5.77
2022-09-20T08:51:06.275Z,7.40
2022-09-20T08:53:36.260Z,5.13
2022-09-20T08:56:04.831Z,8.07
2022-09-20T08:58:33.358Z,7.17
2022-09-20T09:01:02.026Z,7.67
2022-09-20T09:03:30.449Z,6.13
2022-09-20T09:05:59.399Z,9.23
2022-09-20T09:08:31.038Z,7.03
2022-09-20T09:11:01.961Z,9.33
2022-09-20T09:13:34.801Z,8.03
2022-09-20T09:16:05.306Z,7.37
2022-09-20T09:18:39.336Z,6.33
2022-09-20T09:21:10.206Z,4.90
2022-09-20T09:23:41.996Z,8.27
2022-09-20T09:26:18.738Z,4.93
2022-09-20T09:28:48.912Z,5.07
2022-09-20T09:31:26.165Z,4.67
2022-09-20T09:33:56.747Z,6.97
2022-09-20T09:36:27.772Z,6.67
2022-09-20T09:39:11.891Z,5.77
2022-09-20T09:41:43.791Z,5.90
2022-09-20T09:44:20.758Z,5.80
2022-09-20T09:46:50.486Z,8.67
2022-09-20T09:49:19.935Z,6.30
2022-09-20T09:52:06.016Z,8.40
2022-09-20T09:54:36.630Z,7.10
2022-09-20T09:57:20.494Z,9.90
2022-09-20T09:59:55.012Z,7.90
2022-09-20T10:02:31.411Z,6.73
2022-09-20T10:05:02.925Z,8.20
2022-09-20T10:07:35.041Z,6.57
2022-09-20T10:10:08.035Z,6.93
2022-09-20T10:12:49.038Z,5.47
2022-09-20T10:15:23.084Z,4.33
2022-09-20T10:17:53.729Z,4.67
2022-09-20T10:20:28.158Z,5.80
2022-09-20T10:23:34.378Z,4.30
2022-09-20T10:25:55.070Z,6.83
2022-09-20T10:28:32.682Z,6.30
2022-09-20T10:31:06.494Z,6.53
2022-09-20T10:33:38.177Z,8.63
2022-09-20T10:36:12.510Z,7.00
2022-09-20T10:38:43.885Z,7.40
2022-09-20T10:41:34.504Z,6.33
2022-09-20T10:44:18.399Z,8.37
2022-09-20T10:46:53.230Z,7.80
2022-09-20T10:49:29.682Z,7.27
2022-09-20T10:52:16.136Z,5.70
2022-09-20T10:54:52.810Z,6.40
2022-09-20T10:57:26.818Z,7.60
2022-09-20T10:59:59.856Z,5.93
2022-09-20T11:02:43.205Z,5.67
2022-09-20T11:05:20.681Z,4.50
2022-09-20T11:07:53.623Z,4.00
2022-09-20T11:10:24.345Z,5.53
2022-09-20T11:12:55.963Z,7.10
2022-09-20T11:15:27.967Z,7.63
2022-09-20T11:18:00.786Z,4.63
2022-09-20T11:20:29.766Z,5.43
2022-09-20T11:23:00.242Z,6.53
2022-09-20T11:25:33.167Z,6.13
2022-09-20T11:28:04.805Z,4.30
2022-09-20T11:30:35.637Z,4.60
2022-09-20T11:33:08.040Z,4.55
2022-09-20T11:35:40.789Z,3.38
2022-09-20T11:38:13.555Z,3.17
2022-09-20T11:40:45.138Z,5.45
2022-09-20T11:43:16.101Z,2.90
2022-09-20T11:45:47.979Z,3.85
2022-09-20T11:48:21.176Z,2.95
2022-09-20T11:50:58.128Z,2.75
2022-09-20T11:53:38.033Z,2.33
2022-09-20T11:56:09.903Z,1.88
2022-09-20T11:58:48.347Z,1.90
2022-09-20T12:01:28.329Z,1.98
2022-09-20T12:04:20.574Z,2.60
2022-09-20T12:06:47.157Z,2.70
2022-09-20T12:09:25.045Z,2.50
2022-09-20T12:11:53.842Z,0.75
2022-09-20T12:14:24.866Z,2.15
2022-09-20T12:16:54.877Z,3.60
2022-09-20T12:19:38.889Z,1.92
2022-09-20T12:22:31.400Z,1.27
2022-09-20T12:25:26.622Z,1.77
2022-09-20T12:27:58.270Z,3.37
2022-09-20T12:30:26.783Z,2.17
2022-09-20T12:33:01.159Z,3.63
2022-09-20T12:36:00.109Z,2.97
2022-09-20T12:38:31.321Z,1.75
2022-09-20T12:41:00.312Z,2.17
2022-09-20T12:43:29.759Z,2.85
2022-09-20T12:46:03.840Z,2.60
2022-09-20T12:48:38.871Z,2.30
2022-09-20T12:51:36.213Z,1.83
2022-09-20T12:54:06.606Z,3.13
2022-09-20T12:56:37.106Z,1.40
2022-09-20T12:59:08.150Z,1.73
2022-09-20T13:01:43.791Z,1.63
2022-09-20T13:04:31.071Z,3.93
2022-09-20T13:07:14.371Z,2.73
2022-09-20T13:09:44.150Z,0.93
2022-09-20T13:12:12.598Z,1.27
2022-09-20T13:14:41.161Z,3.30
2022-09-20T13:17:17.622Z,3.20
2022-09-20T13:19:47.603Z,2.50
2022-09-20T13:22:19.666Z,1.87
2022-09-20T13:24:50.747Z,2.60
2022-09-20T13:27:23.036Z,2.33
2022-09-20T13:29:53.376Z,1.33
2022-09-20T13:32:24.545Z,2.80
2022-09-20T13:35:06.613Z,2.27
2022-09-20T13:37:35.279Z,2.37
2022-09-20T13:40:06.992Z,2.43
2022-09-20T13:42:36.776Z,2.07
2022-09-20T13:45:07.053Z,2.83
2022-09-20T13:47:35.473Z,3.57
2022-09-20T13:50:04.209Z,2.10
2022-09-20T13:52:34.009Z,2.40
2022-09-20T13:55:22.361Z,1.27
2022-09-20T13:57:53.348Z,2.00
2022-09-20T14:00:21.853Z,0.70
2022-09-20T14:02:50.670Z,1.60
2022-09-20T14:05:20.122Z,0.77
2022-09-20T14:07:49.278Z,1.57
2022-09-20T14:10:32.554Z,2.60
2022-09-20T14:13:03.227Z,1.47
2022-09-20T14:15:34.270Z,2.23
2022-09-20T14:18:04.700Z,2.63
2022-09-20T14:20:33.911Z,2.43
2022-09-20T14:23:02.677Z,2.40
2022-09-20T14:25:33.597Z,3.57
2022-09-20T14:28:18.730Z,3.30
2022-09-20T14:30:48.279Z,3.70
2022-09-20T14:33:18.183Z,1.30
2022-09-20T14:35:50.713Z,1.67
2022-09-20T14:38:20.603Z,2.37
2022-09-20T14:40:50.127Z,2.00
2022-09-20T14:43:25.967Z,2.20
2022-09-20T14:45:56.184Z,5.10
2022-09-20T14:48:35.586Z,3.53
2022-09-20T14:51:11.839Z,2.97
2022-09-20T14:53:40.442Z,3.37
2022-09-20T14:56:10.459Z,3.77
2022-09-20T14:58:58.177Z,2.67
2022-09-20T15:01:27.983Z,3.47
2022-09-20T15:03:56.519Z,3.67
2022-09-20T15:06:25.288Z,2.47
2022-09-20T15:08:53.898Z,3.80
2022-09-20T15:11:22.343Z,3.67
2022-09-20T15:13:50.782Z,2.53
2022-09-20T15:16:21.325Z,3.73
2022-09-20T15:18:51.182Z,4.00
2022-09-20T15:21:19.574Z,2.73
2022-09-20T15:23:48.567Z,3.03
2022-09-20T15:26:17.531Z,4.07
2022-09-20T15:28:46.037Z,3.47
2022-09-20T15:31:15.340Z,4.70
2022-09-20T15:33:43.762Z,2.53
2022-09-20T15:36:14.056Z,3.50
2022-09-20T15:38:42.751Z,4.37
2022-09-20T15:41:11.132Z,2.10
2022-09-20T15:43:42.443Z,3.47
2022-09-20T15:46:19.606Z,3.90
2022-09-20T15:48:48.119Z,2.63
2022-09-20T15:51:18.212Z,3.90
2022-09-20T15:53:48.807Z,2.63
2022-09-20T15:56:19.607Z,4.30
2022-09-20T15:58:48.835Z,2.37
2022-09-20T16:01:18.233Z,3.50
2022-09-20T16:03:47.517Z,3.07
2022-09-20T16:06:16.045Z,3.37
2022-09-20T16:08:45.826Z,3.17
2022-09-20T16:11:18.174Z,4.30
2022-09-20T16:13:49.117Z,3.03
2022-09-20T16:16:17.861Z,4.23
2022-09-20T16:19:04.188Z,4.03
2022-09-20T16:21:33.128Z,3.03
2022-09-20T16:24:03.122Z,2.93
2022-09-20T16:26:31.654Z,1.63
2022-09-20T16:29:00.071Z,2.13
2022-09-20T16:31:32.836Z,2.50
2022-09-20T16:34:01.562Z,3.83
2022-09-20T16:36:29.966Z,4.80
2022-09-20T16:38:58.676Z,1.47
2022-09-20T16:41:29.019Z,2.23
2022-09-20T16:43:57.983Z,1.53
2022-09-20T16:46:28.209Z,2.37
2022-09-20T16:48:57.035Z,1.63
2022-09-20T16:51:26.180Z,1.97
2022-09-20T16:53:56.181Z,1.53
2022-09-20T16:56:25.481Z,2.10
2022-09-20T16:58:55.862Z,0.90
2022-09-20T17:01:24.593Z,3.73
2022-09-20T17:03:53.228Z,1.93
2022-09-20T17:06:21.574Z,0.50
2022-09-20T17:08:58.112Z,1.50
2022-09-20T17:11:28.138Z,1.20
2022-09-20T17:13:58.300Z,0.80
2022-09-20T17:16:27.769Z,2.67
2022-09-20T17:18:56.857Z,1.73
2022-09-20T17:21:25.219Z,3.70
2022-09-20T17:23:55.694Z,2.27
2022-09-20T17:26:25.397Z,3.27
2022-09-20T17:28:58.128Z,1.40
2022-09-20T17:31:33.966Z,2.33
2022-09-20T17:34:03.306Z,1.60
2022-09-20T17:36:32.745Z,1.77
2022-09-20T17:39:04.457Z,2.40
2022-09-20T17:41:34.452Z,1.80
2022-09-20T17:44:08.046Z,2.63
2022-09-20T17:46:38.390Z,2.00
2022-09-20T17:49:08.488Z,1.70
2022-09-20T17:51:37.881Z,1.30
2022-09-20T17:54:06.577Z,2.50
2022-09-20T17:56:35.718Z,2.43
2022-09-20T17:59:04.668Z,1.50
2022-09-20T18:01:34.298Z,2.27
2022-09-20T18:04:04.863Z,2.30
2022-09-20T18:06:37.056Z,1.97
2022-09-20T18:09:06.962Z,2.87
2022-09-20T18:11:36.421Z,2.63
2022-09-20T18:14:05.647Z,2.90
2022-09-20T18:16:35.147Z,1.90
2022-09-20T18:19:05.717Z,1.93
2022-09-20T18:21:35.716Z,3.47
2022-09-20T18:24:04.381Z,4.53
2022-09-20T18:26:32.846Z,3.87
2022-09-20T18:29:02.046Z,3.27
2022-09-20T18:31:36.139Z,3.83
2022-09-20T18:34:07.026Z,3.87
2022-09-20T18:36:36.156Z,2.97
2022-09-20T18:39:05.022Z,2.60
2022-09-20T18:41:34.417Z,2.60
2022-09-20T18:44:04.045Z,3.90
2022-09-20T18:46:33.240Z,4.03
2022-09-20T18:49:04.898Z,3.40
2022-09-20T18:51:39.180Z,2.93
2022-09-20T18:54:12.268Z,3.40
2022-09-20T18:56:42.030Z,3.63
2022-09-20T18:59:20.635Z,4.43
2022-09-20T19:01:59.967Z,5.00
2022-09-20T19:04:34.897Z,4.47
2022-09-20T19:07:10.715Z,3.50
2022-09-20T19:09:45.676Z,3.03
2022-09-20T19:12:23.085Z,4.70
2022-09-20T19:15:11.435Z,2.90
2022-09-20T19:17:47.974Z,4.40
2022-09-20T19:20:21.490Z,4.20
2022-09-20T19:22:57.025Z,3.47
2022-09-20T19:25:27.657Z,2.57
2022-09-20T19:27:56.140Z,5.17
2022-09-20T19:30:25.052Z,6.63
2022-09-20T19:32:53.709Z,3.90
2022-09-20T19:35:24.469Z,5.73
2022-09-20T19:38:04.006Z,4.57
2022-09-20T19:40:37.025Z,4.27
2022-09-20T19:43:14.508Z,4.87
2022-09-20T19:45:47.087Z,4.50
2022-09-20T19:48:18.698Z,3.97
2022-09-20T19:50:48.295Z,4.13
2022-09-20T19:53:19.502Z,5.07
2022-09-20T19:55:48.245Z,5.97
2022-09-20T19:58:18.243Z,4.83
2022-09-20T20:00:46.930Z,4.93
2022-09-20T20:03:16.092Z,4.93
2022-09-20T20:05:48.222Z,5.60
2022-09-20T20:08:19.642Z,4.60
2022-09-20T20:10:52.683Z,5.23
2022-09-20T20:13:45.291Z,5.47
2022-09-20T20:16:15.155Z,7.17
2022-09-20T20:18:52.448Z,5.73
2022-09-20T20:21:27.150Z,7.10
2022-09-20T20:24:06.326Z,6.00
2022-09-20T20:26:35.166Z,7.07
2022-09-20T20:29:04.751Z,7.40
2022-09-20T20:31:34.275Z,6.47
2022-09-20T20:34:02.879Z,5.83
2022-09-20T20:36:31.266Z,9.77
2022-09-20T20:39:02.808Z,9.40
2022-09-20T20:41:31.930Z,8.53
2022-09-20T20:44:00.298Z,7.33
2022-09-20T20:46:28.674Z,9.00
2022-09-20T20:48:58.564Z,6.20
2022-09-20T20:51:28.124Z,6.70
2022-09-20T20:53:58.463Z,6.70
2022-09-20T20:56:29.852Z,10.23
2022-09-20T20:59:00.933Z,8.50
2022-09-20T21:01:30.753Z,6.63
2022-09-20T21:03:59.681Z,6.87
2022-09-20T21:06:29.663Z,6.73
2022-09-20T21:08:58.275Z,6.33
2022-09-20T21:11:28.571Z,6.60
2022-09-20T21:13:57.984Z,6.57
2022-09-20T21:16:27.570Z,7.33
2022-09-20T21:18:56.106Z,5.60
2022-09-20T21:21:25.866Z,6.80
2022-09-20T21:23:55.303Z,6.73
2022-09-20T21:26:24.292Z,6.27
2022-09-20T21:28:54.585Z,8.07
2022-09-20T21:31:23.987Z,7.03
2022-09-20T21:33:52.633Z,6.10
2022-09-20T21:36:21.695Z,6.57
2022-09-20T21:38:50.280Z,7.17
2022-09-20T21:41:19.843Z,6.33
2022-09-20T21:43:48.981Z,9.47
2022-09-20T21:46:19.543Z,8.17
2022-09-20T21:48:49.000Z,5.67
2022-09-20T21:51:18.274Z,6.57
2022-09-20T21:53:47.418Z,5.73
2022-09-20T21:56:17.540Z,7.40
2022-09-20T21:58:46.341Z,6.43
2022-09-20T22:01:15.510Z,8.20
2022-09-20T22:03:45.878Z,6.70
2022-09-20T22:06:15.453Z,6.93
2022-09-20T22:08:45.235Z,7.00
2022-09-20T22:11:15.111Z,7.20
2022-09-20T22:13:44.405Z,6.93
2022-09-20T22:16:14.196Z,6.90
2022-09-20T22:18:43.547Z,7.67
2022-09-20T22:21:14.127Z,7.90
2022-09-20T22:23:42.908Z,7.93
2022-09-20T22:26:11.915Z,7.70
2022-09-20T22:28:40.567Z,6.93
2022-09-20T22:31:09.824Z,7.97
2022-09-20T22:33:41.485Z,7.03
2022-09-20T22:36:10.437Z,6.40
2022-09-20T22:38:40.203Z,6.47
2022-09-20T22:41:08.537Z,7.63
2022-09-20T22:43:37.409Z,6.80
2022-09-20T22:46:06.542Z,7.30
2022-09-20T22:48:35.315Z,8.97
2022-09-20T22:51:04.354Z,5.97
2022-09-20T22:53:33.255Z,7.70
2022-09-20T22:56:07.461Z,8.10
2022-09-20T22:58:37.103Z,6.60
2022-09-20T23:01:09.508Z,7.23
2022-09-20T23:03:38.361Z,6.10
2022-09-20T23:06:12.912Z,8.27
2022-09-20T23:08:41.320Z,6.93
2022-09-20T23:11:11.230Z,6.33
2022-09-20T23:13:39.774Z,7.03
2022-09-20T23:16:14.822Z,7.10
2022-09-20T23:18:43.306Z,8.90
2022-09-20T23:21:11.696Z,7.10
2022-09-20T23:23:42.135Z,8.63
2022-09-20T23:26:12.599Z,6.80
2022-09-20T23:28:41.931Z,6.80
2022-09-20T23:31:11.304Z,6.93
2022-09-20T23:33:42.513Z,6.63
2022-09-20T23:36:14.491Z,6.63
2022-09-20T23:38:42.937Z,6.73
2022-09-20T23:41:14.328Z,7.00
2022-09-20T23:43:43.270Z,10.97
2022-09-20T23:46:12.328Z,6.63
2022-09-20T23:48:42.520Z,7.13
2022-09-20T23:51:11.914Z,10.37
2022-09-20T23:53:40.668Z,8.30
2022-09-20T23:56:09.627Z,8.50
2022-09-20T23:58:40.029Z,8.83
